sensor_id;sensor_type;location;lat;lon;timestamp;pressure;altitude;pressure_sealevel;temperature;humidity
15817;BME280;8009;50.070;8.232;2022-07-29T00:00:13;99810.59;;;19.53;67.38
15817;BME280;8009;50.070;8.232;2022-07-29T00:02:42;99804.63;;;19.49;64.67
15817;BME280;8009;50.070;8.232;2022-07-29T00:05:10;99800.88;;;19.51;71.70
15817;BME280;8009;50.070;8.232;2022-07-29T00:07:39;99814.09;;;19.39;72.51
15817;BME280;8009;50.070;8.232;2022-07-29T00:10:09;99819.84;;;19.13;74.37
15817;BME280;8009;50.070;8.232;2022-07-29T00:12:37;99815.97;;;18.83;76.55
15817;BME280;8009;50.070;8.232;2022-07-29T00:15:09;99806.25;;;18.72;75.58
15817;BME280;8009;50.070;8.232;2022-07-29T00:17:37;99809.47;;;18.59;74.03
15817;BME280;8009;50.070;8.232;2022-07-29T00:20:07;99824.69;;;18.70;76.49
15817;BME280;8009;50.070;8.232;2022-07-29T00:22:37;99822.13;;;18.77;74.06
15817;BME280;8009;50.070;8.232;2022-07-29T00:25:06;99814.75;;;18.93;70.67
15817;BME280;8009;50.070;8.232;2022-07-29T00:27:35;99830.94;;;19.11;73.46
15817;BME280;8009;50.070;8.232;2022-07-29T00:30:05;99820.25;;;18.85;73.17
15817;BME280;8009;50.070;8.232;2022-07-29T00:32:36;99811.00;;;18.94;71.96
15817;BME280;8009;50.070;8.232;2022-07-29T00:35:08;99808.03;;;19.12;68.70
15817;BME280;8009;50.070;8.232;2022-07-29T00:37:49;99803.38;;;19.21;68.56
15817;BME280;8009;50.070;8.232;2022-07-29T00:40:19;99798.84;;;18.97;72.99
15817;BME280;8009;50.070;8.232;2022-07-29T00:42:48;99801.91;;;19.02;72.83
15817;BME280;8009;50.070;8.232;2022-07-29T00:45:17;99802.38;;;19.14;69.42
15817;BME280;8009;50.070;8.232;2022-07-29T00:47:49;99800.00;;;19.03;70.23
15817;BME280;8009;50.070;8.232;2022-07-29T00:50:19;99792.78;;;19.18;67.07
15817;BME280;8009;50.070;8.232;2022-07-29T00:52:49;99789.50;;;19.22;69.07
15817;BME280;8009;50.070;8.232;2022-07-29T00:55:18;99789.44;;;18.91;73.34
15817;BME280;8009;50.070;8.232;2022-07-29T00:57:47;99787.16;;;19.11;71.32
15817;BME280;8009;50.070;8.232;2022-07-29T01:00:18;99788.41;;;18.92;72.49
15817;BME280;8009;50.070;8.232;2022-07-29T01:02:49;99779.06;;;18.70;73.38
15817;BME280;8009;50.070;8.232;2022-07-29T01:05:19;99785.25;;;19.20;69.12
15817;BME280;8009;50.070;8.232;2022-07-29T01:07:49;99782.09;;;18.92;68.53
15817;BME280;8009;50.070;8.232;2022-07-29T01:10:19;99798.69;;;18.90;70.38
15817;BME280;8009;50.070;8.232;2022-07-29T01:12:58;99803.66;;;18.87;69.76
15817;BME280;8009;50.070;8.232;2022-07-29T01:15:28;99802.81;;;18.86;71.95
15817;BME280;8009;50.070;8.232;2022-07-29T01:18:03;99794.75;;;18.93;71.08
15817;BME280;8009;50.070;8.232;2022-07-29T01:20:51;99791.16;;;18.84;69.79
15817;BME280;8009;50.070;8.232;2022-07-29T01:23:49;99782.41;;;19.05;68.49
15817;BME280;8009;50.070;8.232;2022-07-29T01:26:35;99790.63;;;19.05;68.15
15817;BME280;8009;50.070;8.232;2022-07-29T01:29:18;99791.19;;;19.32;66.61
15817;BME280;8009;50.070;8.232;2022-07-29T01:31:54;99785.59;;;19.17;66.12
15817;BME280;8009;50.070;8.232;2022-07-29T01:34:27;99777.78;;;19.06;66.46
15817;BME280;8009;50.070;8.232;2022-07-29T01:37:07;99776.28;;;18.95;67.52
15817;BME280;8009;50.070;8.232;2022-07-29T01:39:38;99770.66;;;19.36;66.22
15817;BME280;8009;50.070;8.232;2022-07-29T01:42:14;99780.91;;;18.86;70.19
15817;BME280;8009;50.070;8.232;2022-07-29T01:44:53;99787.78;;;18.82;73.47
15817;BME280;8009;50.070;8.232;2022-07-29T01:47:40;99789.47;;;18.42;70.30
15817;BME280;8009;50.070;8.232;2022-07-29T01:50:12;99780.44;;;18.74;70.42
15817;BME280;8009;50.070;8.232;2022-07-29T01:52:46;99769.63;;;18.89;70.25
15817;BME280;8009;50.070;8.232;2022-07-29T01:55:20;99767.94;;;18.64;71.61
15817;BME280;8009;50.070;8.232;2022-07-29T01:57:50;99773.06;;;18.67;75.81
15817;BME280;8009;50.070;8.232;2022-07-29T02:00:22;99771.69;;;18.87;75.04
15817;BME280;8009;50.070;8.232;2022-07-29T02:02:53;99770.00;;;18.45;76.71
15817;BME280;8009;50.070;8.232;2022-07-29T02:05:23;99766.91;;;18.65;76.49
15817;BME280;8009;50.070;8.232;2022-07-29T02:07:55;99762.94;;;18.92;72.34
15817;BME280;8009;50.070;8.232;2022-07-29T02:10:30;99773.41;;;18.80;71.89
15817;BME280;8009;50.070;8.232;2022-07-29T02:12:59;99772.06;;;18.51;76.46
15817;BME280;8009;50.070;8.232;2022-07-29T02:15:34;99765.94;;;18.09;78.04
15817;BME280;8009;50.070;8.232;2022-07-29T02:18:07;99764.88;;;18.75;76.02
15817;BME280;8009;50.070;8.232;2022-07-29T02:20:38;99748.34;;;18.11;79.03
15817;BME280;8009;50.070;8.232;2022-07-29T02:23:09;99751.94;;;18.28;78.55
15817;BME280;8009;50.070;8.232;2022-07-29T02:25:38;99759.06;;;18.45;76.17
15817;BME280;8009;50.070;8.232;2022-07-29T02:28:09;99758.38;;;18.35;76.97
15817;BME280;8009;50.070;8.232;2022-07-29T02:30:41;99742.84;;;18.44;75.95
15817;BME280;8009;50.070;8.232;2022-07-29T02:33:12;99737.06;;;18.22;74.49
15817;BME280;8009;50.070;8.232;2022-07-29T02:35:43;99726.81;;;18.08;74.13
15817;BME280;8009;50.070;8.232;2022-07-29T02:38:13;99726.81;;;18.08;73.51
15817;BME280;8009;50.070;8.232;2022-07-29T02:40:55;99718.13;;;18.13;73.96
15817;BME280;8009;50.070;8.232;2022-07-29T02:43:25;99721.53;;;18.15;73.63
15817;BME280;8009;50.070;8.232;2022-07-29T02:45:58;99723.75;;;18.11;70.87
15817;BME280;8009;50.070;8.232;2022-07-29T02:48:36;99724.44;;;18.13;72.93
15817;BME280;8009;50.070;8.232;2022-07-29T02:51:08;99725.13;;;18.07;71.62
15817;BME280;8009;50.070;8.232;2022-07-29T02:53:42;99724.09;;;18.24;72.75
15817;BME280;8009;50.070;8.232;2022-07-29T02:56:14;99725.28;;;18.30;74.17
15817;BME280;8009;50.070;8.232;2022-07-29T02:58:49;99721.03;;;17.95;72.67
15817;BME280;8009;50.070;8.232;2022-07-29T03:01:24;99723.75;;;18.11;73.09
15817;BME280;8009;50.070;8.232;2022-07-29T03:03:55;99718.97;;;17.89;72.52
15817;BME280;8009;50.070;8.232;2022-07-29T03:06:25;99722.72;;;17.80;74.73
15817;BME280;8009;50.070;8.232;2022-07-29T03:08:55;99724.78;;;18.02;75.24
15817;BME280;8009;50.070;8.232;2022-07-29T03:11:25;99723.88;;;17.69;78.22
15817;BME280;8009;50.070;8.232;2022-07-29T03:13:55;99721.88;;;18.03;75.46
15817;BME280;8009;50.070;8.232;2022-07-29T03:16:26;99716.56;;;17.77;73.64
15817;BME280;8009;50.070;8.232;2022-07-29T03:18:55;99720.16;;;18.02;76.88
15817;BME280;8009;50.070;8.232;2022-07-29T03:21:24;99716.41;;;17.87;76.08
15817;BME280;8009;50.070;8.232;2022-07-29T03:23:52;99714.47;;;17.63;77.35
15817;BME280;8009;50.070;8.232;2022-07-29T03:26:20;99715.88;;;17.92;76.41
15817;BME280;8009;50.070;8.232;2022-07-29T03:28:49;99716.06;;;17.90;75.21
15817;BME280;8009;50.070;8.232;2022-07-29T03:31:17;99712.50;;;17.98;74.67
15817;BME280;8009;50.070;8.232;2022-07-29T03:33:48;99718.22;;;17.70;76.14
15817;BME280;8009;50.070;8.232;2022-07-29T03:36:16;99712.44;;;17.73;74.53
15817;BME280;8009;50.070;8.232;2022-07-29T03:38:46;99715.56;;;17.78;76.23
15817;BME280;8009;50.070;8.232;2022-07-29T03:41:16;99715.66;;;17.52;75.29
15817;BME280;8009;50.070;8.232;2022-07-29T03:43:47;99716.69;;;17.68;73.81
15817;BME280;8009;50.070;8.232;2022-07-29T03:46:19;99719.06;;;17.63;75.16
15817;BME280;8009;50.070;8.232;2022-07-29T03:48:54;99719.47;;;17.84;71.97
15817;BME280;8009;50.070;8.232;2022-07-29T03:51:25;99717.59;;;17.85;73.51
15817;BME280;8009;50.070;8.232;2022-07-29T03:53:53;99716.06;;;18.07;74.95
15817;BME280;8009;50.070;8.232;2022-07-29T03:56:23;99719.28;;;17.86;74.78
15817;BME280;8009;50.070;8.232;2022-07-29T03:58:52;99715.84;;;17.67;76.32
15817;BME280;8009;50.070;8.232;2022-07-29T04:01:22;99727.41;;;17.53;76.42
15817;BME280;8009;50.070;8.232;2022-07-29T04:03:54;99723.56;;;17.88;69.81
15817;BME280;8009;50.070;8.232;2022-07-29T04:06:23;99727.00;;;17.90;75.05
15817;BME280;8009;50.070;8.232;2022-07-29T04:08:51;99731.50;;;17.49;76.29
15817;BME280;8009;50.070;8.232;2022-07-29T04:11:20;99734.06;;;17.59;74.86
15817;BME280;8009;50.070;8.232;2022-07-29T04:13:48;99735.19;;;17.32;77.50
15817;BME280;8009;50.070;8.232;2022-07-29T04:16:17;99737.81;;;17.49;77.38
15817;BME280;8009;50.070;8.232;2022-07-29T04:18:47;99739.31;;;17.36;76.78
15817;BME280;8009;50.070;8.232;2022-07-29T04:21:18;99738.53;;;17.60;76.81
15817;BME280;8009;50.070;8.232;2022-07-29T04:23:47;99745.59;;;17.87;74.83
15817;BME280;8009;50.070;8.232;2022-07-29T04:26:16;99745.75;;;17.77;74.46
15817;BME280;8009;50.070;8.232;2022-07-29T04:28:45;99757.47;;;17.61;74.76
15817;BME280;8009;50.070;8.232;2022-07-29T04:31:13;99755.91;;;17.59;75.12
15817;BME280;8009;50.070;8.232;2022-07-29T04:33:42;99758.59;;;17.42;76.44
15817;BME280;8009;50.070;8.232;2022-07-29T04:36:10;99761.06;;;17.70;75.63
15817;BME280;8009;50.070;8.232;2022-07-29T04:38:41;99764.31;;;17.73;74.56
15817;BME280;8009;50.070;8.232;2022-07-29T04:41:10;99764.88;;;17.85;75.10
15817;BME280;8009;50.070;8.232;2022-07-29T04:43:38;99768.81;;;17.91;76.49
15817;BME280;8009;50.070;8.232;2022-07-29T04:46:07;99765.97;;;17.58;76.93
15817;BME280;8009;50.070;8.232;2022-07-29T04:48:35;99766.75;;;17.76;74.86
15817;BME280;8009;50.070;8.232;2022-07-29T04:51:03;99762.31;;;17.84;75.95
15817;BME280;8009;50.070;8.232;2022-07-29T04:53:32;99757.72;;;17.84;75.26
15817;BME280;8009;50.070;8.232;2022-07-29T04:56:03;99758.28;;;17.45;76.42
15817;BME280;8009;50.070;8.232;2022-07-29T04:58:34;99754.47;;;17.81;77.00
15817;BME280;8009;50.070;8.232;2022-07-29T05:01:02;99749.84;;;17.81;76.87
15817;BME280;8009;50.070;8.232;2022-07-29T05:03:31;99752.25;;;17.76;76.86
15817;BME280;8009;50.070;8.232;2022-07-29T05:05:59;99748.72;;;17.41;78.27
15817;BME280;8009;50.070;8.232;2022-07-29T05:08:28;99756.44;;;17.62;78.17
15817;BME280;8009;50.070;8.232;2022-07-29T05:10:57;99757.81;;;17.66;77.36
15817;BME280;8009;50.070;8.232;2022-07-29T05:13:28;99759.69;;;17.74;78.20
15817;BME280;8009;50.070;8.232;2022-07-29T05:15:56;99762.19;;;17.93;76.82
15817;BME280;8009;50.070;8.232;2022-07-29T05:18:25;99760.13;;;17.95;75.47
15817;BME280;8009;50.070;8.232;2022-07-29T05:20:53;99760.81;;;17.97;75.72
15817;BME280;8009;50.070;8.232;2022-07-29T05:23:22;99765.06;;;18.00;76.23
15817;BME280;8009;50.070;8.232;2022-07-29T05:25:50;99761.81;;;17.96;75.40
15817;BME280;8009;50.070;8.232;2022-07-29T05:28:19;99765.09;;;18.24;73.45
15817;BME280;8009;50.070;8.232;2022-07-29T05:30:50;99752.25;;;18.00;76.21
15817;BME280;8009;50.070;8.232;2022-07-29T05:33:21;99756.72;;;18.10;75.89
15817;BME280;8009;50.070;8.232;2022-07-29T05:35:51;99774.47;;;18.14;76.82
15817;BME280;8009;50.070;8.232;2022-07-29T05:38:19;99767.63;;;18.42;74.84
15817;BME280;8009;50.070;8.232;2022-07-29T05:40:50;99768.13;;;18.38;73.08
15817;BME280;8009;50.070;8.232;2022-07-29T05:43:18;99761.13;;;18.51;72.87
15817;BME280;8009;50.070;8.232;2022-07-29T05:45:46;99760.59;;;18.56;71.47
15817;BME280;8009;50.070;8.232;2022-07-29T05:48:17;99762.63;;;18.54;72.81
15817;BME280;8009;50.070;8.232;2022-07-29T05:50:46;99769.34;;;18.51;73.70
15817;BME280;8009;50.070;8.232;2022-07-29T05:53:14;99763.13;;;18.66;73.72
15817;BME280;8009;50.070;8.232;2022-07-29T05:55:43;99771.69;;;18.79;73.58
15817;BME280;8009;50.070;8.232;2022-07-29T05:58:11;99774.06;;;18.90;73.04
15817;BME280;8009;50.070;8.232;2022-07-29T06:00:39;99775.09;;;18.89;73.44
15817;BME280;8009;50.070;8.232;2022-07-29T06:03:09;99783.44;;;18.96;72.33
15817;BME280;8009;50.070;8.232;2022-07-29T06:05:40;99785.50;;;18.94;71.41
15817;BME280;8009;50.070;8.232;2022-07-29T06:08:09;99778.06;;;19.19;71.71
15817;BME280;8009;50.070;8.232;2022-07-29T06:10:37;99780.09;;;19.25;70.93
15817;BME280;8009;50.070;8.232;2022-07-29T06:13:06;99771.53;;;19.28;71.16
15817;BME280;8009;50.070;8.232;2022-07-29T06:15:35;99778.28;;;19.09;72.41
15817;BME280;8009;50.070;8.232;2022-07-29T06:18:03;99783.72;;;19.17;69.19
15817;BME280;8009;50.070;8.232;2022-07-29T06:20:35;99784.66;;;19.41;68.75
15817;BME280;8009;50.070;8.232;2022-07-29T06:23:06;99782.03;;;19.16;70.87
15817;BME280;8009;50.070;8.232;2022-07-29T06:25:35;99777.72;;;19.53;69.85
15817;BME280;8009;50.070;8.232;2022-07-29T06:28:04;99778.50;;;19.78;68.95
15817;BME280;8009;50.070;8.232;2022-07-29T06:30:33;99770.28;;;20.01;67.18
15817;BME280;8009;50.070;8.232;2022-07-29T06:33:01;99773.88;;;20.02;68.99
15817;BME280;8009;50.070;8.232;2022-07-29T06:35:29;99782.03;;;20.10;64.42
15817;BME280;8009;50.070;8.232;2022-07-29T06:37:58;99776.25;;;20.05;65.15
15817;BME280;8009;50.070;8.232;2022-07-29T06:40:29;99776.72;;;20.31;65.32
15817;BME280;8009;50.070;8.232;2022-07-29T06:43:09;99773.78;;;20.33;66.23
15817;BME280;8009;50.070;8.232;2022-07-29T06:45:38;99772.31;;;20.45;64.38
15817;BME280;8009;50.070;8.232;2022-07-29T06:48:08;99779.53;;;20.99;64.50
15817;BME280;8009;50.070;8.232;2022-07-29T06:50:36;99775.38;;;21.03;61.76
15817;BME280;8009;50.070;8.232;2022-07-29T06:53:05;99774.91;;;20.99;63.37
15817;BME280;8009;50.070;8.232;2022-07-29T06:55:35;99781.13;;;21.08;60.31
15817;BME280;8009;50.070;8.232;2022-07-29T06:58:05;99787.38;;;21.16;62.51
15817;BME280;8009;50.070;8.232;2022-07-29T07:00:34;99775.44;;;21.09;61.21
15817;BME280;8009;50.070;8.232;2022-07-29T07:03:03;99778.13;;;21.03;61.79
15817;BME280;8009;50.070;8.232;2022-07-29T07:05:31;99787.09;;;21.11;56.07
15817;BME280;8009;50.070;8.232;2022-07-29T07:07:59;99792.22;;;21.29;57.81
15817;BME280;8009;50.070;8.232;2022-07-29T07:10:28;99787.03;;;21.34;50.28
15817;BME280;8009;50.070;8.232;2022-07-29T07:12:59;99795.41;;;21.48;54.84
15817;BME280;8009;50.070;8.232;2022-07-29T07:15:27;99791.34;;;21.44;49.97
15817;BME280;8009;50.070;8.232;2022-07-29T07:17:56;99794.56;;;21.47;47.94
15817;BME280;8009;50.070;8.232;2022-07-29T07:20:25;99786.78;;;21.65;50.13
15817;BME280;8009;50.070;8.232;2022-07-29T07:22:53;99799.34;;;21.75;52.39
15817;BME280;8009;50.070;8.232;2022-07-29T07:25:22;99800.34;;;21.88;44.15
15817;BME280;8009;50.070;8.232;2022-07-29T07:27:50;99795.66;;;22.04;46.36
15817;BME280;8009;50.070;8.232;2022-07-29T07:30:21;99801.25;;;22.10;46.60
15817;BME280;8009;50.070;8.232;2022-07-29T07:32:51;99798.66;;;22.09;46.41
15817;BME280;8009;50.070;8.232;2022-07-29T07:35:20;99790.22;;;22.25;44.07
15817;BME280;8009;50.070;8.232;2022-07-29T07:37:49;99799.03;;;22.21;46.13
15817;BME280;8009;50.070;8.232;2022-07-29T07:40:17;99800.22;;;22.33;44.15
15817;BME280;8009;50.070;8.232;2022-07-29T07:42:46;99798.94;;;22.29;45.15
15817;BME280;8009;50.070;8.232;2022-07-29T07:45:14;99801.69;;;22.29;43.64
15817;BME280;8009;50.070;8.232;2022-07-29T07:47:45;99800.03;;;22.34;44.08
15817;BME280;8009;50.070;8.232;2022-07-29T07:50:14;99794.44;;;22.49;42.28
15817;BME280;8009;50.070;8.232;2022-07-29T07:52:47;99786.59;;;22.46;45.68
15817;BME280;8009;50.070;8.232;2022-07-29T07:55:16;99800.94;;;22.63;43.79
15817;BME280;8009;50.070;8.232;2022-07-29T07:57:45;99791.66;;;22.71;43.57
15817;BME280;8009;50.070;8.232;2022-07-29T08:00:15;99791.69;;;22.77;43.94
15817;BME280;8009;50.070;8.232;2022-07-29T08:02:46;99788.94;;;22.77;43.55
15817;BME280;8009;50.070;8.232;2022-07-29T08:05:15;99796.56;;;22.75;41.27
15817;BME280;8009;50.070;8.232;2022-07-29T08:07:46;99785.94;;;22.94;42.90
15817;BME280;8009;50.070;8.232;2022-07-29T08:10:15;99793.81;;;23.03;41.75
15817;BME280;8009;50.070;8.232;2022-07-29T08:13:05;99792.31;;;23.01;41.47
15817;BME280;8009;50.070;8.232;2022-07-29T08:15:34;99786.47;;;23.10;42.30
15817;BME280;8009;50.070;8.232;2022-07-29T08:18:06;99790.16;;;23.24;44.10
15817;BME280;8009;50.070;8.232;2022-07-29T08:20:35;99786.81;;;23.35;43.08
15817;BME280;8009;50.070;8.232;2022-07-29T08:23:06;99790.25;;;23.44;43.78
15817;BME280;8009;50.070;8.232;2022-07-29T08:25:35;99795.94;;;23.36;43.17
15817;BME280;8009;50.070;8.232;2022-07-29T08:28:05;99790.47;;;23.49;41.09
15817;BME280;8009;50.070;8.232;2022-07-29T08:30:34;99790.06;;;23.52;40.62
15817;BME280;8009;50.070;8.232;2022-07-29T08:33:05;99791.47;;;23.70;40.24
15817;BME280;8009;50.070;8.232;2022-07-29T08:35:33;99801.59;;;23.69;41.08
15817;BME280;8009;50.070;8.232;2022-07-29T08:38:03;99799.53;;;23.78;41.94
15817;BME280;8009;50.070;8.232;2022-07-29T08:40:31;99797.84;;;23.83;42.70
15817;BME280;8009;50.070;8.232;2022-07-29T08:43:04;99797.69;;;23.98;45.71
15817;BME280;8009;50.070;8.232;2022-07-29T08:45:42;99795.59;;;24.14;44.79
15817;BME280;8009;50.070;8.232;2022-07-29T08:48:15;99799.50;;;24.39;44.22
15817;BME280;8009;50.070;8.232;2022-07-29T08:50:45;99797.59;;;24.46;49.97
15817;BME280;8009;50.070;8.232;2022-07-29T08:53:15;99799.50;;;24.66;42.54
15817;BME280;8009;50.070;8.232;2022-07-29T08:55:46;99796.94;;;24.77;41.79
15817;BME280;8009;50.070;8.232;2022-07-29T08:58:16;99797.56;;;24.99;47.47
15817;BME280;8009;50.070;8.232;2022-07-29T09:00:46;99797.16;;;24.89;42.83
15817;BME280;8009;50.070;8.232;2022-07-29T09:03:23;99796.72;;;24.86;43.27
15817;BME280;8009;50.070;8.232;2022-07-29T09:05:53;99793.97;;;24.72;41.23
15817;BME280;8009;50.070;8.232;2022-07-29T09:08:22;99791.41;;;24.97;40.33
15817;BME280;8009;50.070;8.232;2022-07-29T09:10:52;99789.03;;;25.27;39.30
15817;BME280;8009;50.070;8.232;2022-07-29T09:13:51;99794.31;;;25.29;38.62
15817;BME280;8009;50.070;8.232;2022-07-29T09:16:20;99785.25;;;24.75;40.47
15817;BME280;8009;50.070;8.232;2022-07-29T09:18:51;99791.22;;;24.79;43.18
15817;BME280;8009;50.070;8.232;2022-07-29T09:21:20;99780.16;;;24.92;43.87
15817;BME280;8009;50.070;8.232;2022-07-29T09:24:04;99781.63;;;25.01;39.02
15817;BME280;8009;50.070;8.232;2022-07-29T09:26:34;99785.59;;;25.45;43.13
15817;BME280;8009;50.070;8.232;2022-07-29T09:29:11;99783.66;;;25.97;40.92
15817;BME280;8009;50.070;8.232;2022-07-29T09:31:41;99781.50;;;26.88;39.96
15817;BME280;8009;50.070;8.232;2022-07-29T09:34:14;99777.66;;;27.14;38.07
15817;BME280;8009;50.070;8.232;2022-07-29T09:36:44;99782.22;;;27.02;42.06
15817;BME280;8009;50.070;8.232;2022-07-29T09:39:14;99772.06;;;26.70;37.70
15817;BME280;8009;50.070;8.232;2022-07-29T09:41:47;99772.19;;;27.44;39.56
15817;BME280;8009;50.070;8.232;2022-07-29T09:44:17;99772.00;;;27.20;35.37
15817;BME280;8009;50.070;8.232;2022-07-29T09:46:56;99769.09;;;27.15;35.94
15817;BME280;8009;50.070;8.232;2022-07-29T09:49:34;99769.22;;;27.02;38.76
15817;BME280;8009;50.070;8.232;2022-07-29T09:52:06;99769.50;;;26.12;38.90
15817;BME280;8009;50.070;8.232;2022-07-29T09:54:42;99767.78;;;26.49;38.05
15817;BME280;8009;50.070;8.232;2022-07-29T09:57:24;99774.50;;;25.97;40.23
15817;BME280;8009;50.070;8.232;2022-07-29T09:59:57;99772.38;;;25.99;41.06
15817;BME280;8009;50.070;8.232;2022-07-29T10:02:34;99768.41;;;25.82;40.73
15817;BME280;8009;50.070;8.232;2022-07-29T10:05:26;99759.41;;;26.24;39.52
15817;BME280;8009;50.070;8.232;2022-07-29T10:07:57;99762.66;;;26.21;39.02
15817;BME280;8009;50.070;8.232;2022-07-29T10:10:27;99760.72;;;26.22;43.24
15817;BME280;8009;50.070;8.232;2022-07-29T10:13:02;99754.59;;;26.45;36.88
15817;BME280;8009;50.070;8.232;2022-07-29T10:15:33;99757.66;;;26.37;38.54
15817;BME280;8009;50.070;8.232;2022-07-29T10:18:07;99765.72;;;26.88;37.48
15817;BME280;8009;50.070;8.232;2022-07-29T10:20:40;99759.69;;;26.98;41.06
15817;BME280;8009;50.070;8.232;2022-07-29T10:23:09;99767.22;;;26.66;40.80
15817;BME280;8009;50.070;8.232;2022-07-29T10:25:37;99767.25;;;26.59;40.40
15817;BME280;8009;50.070;8.232;2022-07-29T10:28:06;99756.72;;;26.49;41.77
15817;BME280;8009;50.070;8.232;2022-07-29T10:30:36;99764.38;;;26.47;37.89
15817;BME280;8009;50.070;8.232;2022-07-29T10:33:18;99760.69;;;26.60;40.54
15817;BME280;8009;50.070;8.232;2022-07-29T10:36:15;99752.94;;;27.31;37.72
15817;BME280;8009;50.070;8.232;2022-07-29T10:38:55;99750.22;;;27.24;41.39
15817;BME280;8009;50.070;8.232;2022-07-29T10:41:50;99748.31;;;26.81;39.21
15817;BME280;8009;50.070;8.232;2022-07-29T10:44:23;99750.78;;;27.14;40.25
15817;BME280;8009;50.070;8.232;2022-07-29T10:46:53;99746.69;;;27.54;39.25
15817;BME280;8009;50.070;8.232;2022-07-29T10:49:23;99739.75;;;27.93;39.76
15817;BME280;8009;50.070;8.232;2022-07-29T10:51:59;99746.59;;;27.79;35.89
15817;BME280;8009;50.070;8.232;2022-07-29T10:54:42;99736.69;;;28.01;39.48
15817;BME280;8009;50.070;8.232;2022-07-29T10:57:12;99737.19;;;27.80;35.91
15817;BME280;8009;50.070;8.232;2022-07-29T10:59:43;99736.44;;;27.54;36.33
15817;BME280;8009;50.070;8.232;2022-07-29T11:02:43;99729.34;;;27.77;35.94
15817;BME280;8009;50.070;8.232;2022-07-29T11:05:16;99728.34;;;28.01;35.14
15817;BME280;8009;50.070;8.232;2022-07-29T11:14:08;99723.25;;;27.68;36.86
15817;BME280;8009;50.070;8.232;2022-07-29T11:16:58;99710.28;;;27.80;36.25
15817;BME280;8009;50.070;8.232;2022-07-29T11:19:28;99716.72;;;27.92;36.13
15817;BME280;8009;50.070;8.232;2022-07-29T11:21:57;99715.44;;;28.07;37.12
15817;BME280;8009;50.070;8.232;2022-07-29T11:24:27;99715.41;;;27.95;34.83
15817;BME280;8009;50.070;8.232;2022-07-29T11:27:09;99711.50;;;27.84;37.47
15817;BME280;8009;50.070;8.232;2022-07-29T11:29:52;99718.50;;;27.57;36.06
15817;BME280;8009;50.070;8.232;2022-07-29T11:32:23;99708.44;;;28.04;36.73
15817;BME280;8009;50.070;8.232;2022-07-29T11:35:11;99711.19;;;27.92;37.14
15817;BME280;8009;50.070;8.232;2022-07-29T11:37:42;99708.06;;;28.01;40.56
15817;BME280;8009;50.070;8.232;2022-07-29T11:40:14;99699.72;;;28.01;39.90
15817;BME280;8009;50.070;8.232;2022-07-29T11:42:48;99697.63;;;28.26;36.71
15817;BME280;8009;50.070;8.232;2022-07-29T11:45:24;99693.97;;;27.72;40.81
15817;BME280;8009;50.070;8.232;2022-07-29T11:47:56;99704.16;;;27.60;40.19
15817;BME280;8009;50.070;8.232;2022-07-29T11:50:31;99708.47;;;27.56;38.26
15817;BME280;8009;50.070;8.232;2022-07-29T11:53:01;99695.38;;;27.63;40.59
15817;BME280;8009;50.070;8.232;2022-07-29T11:55:30;99693.34;;;27.70;43.20
15817;BME280;8009;50.070;8.232;2022-07-29T11:58:01;99687.75;;;27.58;41.56
15817;BME280;8009;50.070;8.232;2022-07-29T12:00:35;99691.22;;;27.54;35.93
15817;BME280;8009;50.070;8.232;2022-07-29T12:03:06;99696.25;;;27.93;40.45
15817;BME280;8009;50.070;8.232;2022-07-29T12:05:40;99680.25;;;27.77;37.72
15817;BME280;8009;50.070;8.232;2022-07-29T12:08:12;99682.72;;;27.67;37.08
15817;BME280;8009;50.070;8.232;2022-07-29T12:10:42;99682.72;;;27.67;37.57
15817;BME280;8009;50.070;8.232;2022-07-29T12:13:11;99683.81;;;27.96;36.64
15817;BME280;8009;50.070;8.232;2022-07-29T12:15:52;99679.72;;;27.68;37.41
15817;BME280;8009;50.070;8.232;2022-07-29T12:18:22;99671.31;;;27.45;36.08
15817;BME280;8009;50.070;8.232;2022-07-29T12:20:57;99678.56;;;27.58;35.79
15817;BME280;8009;50.070;8.232;2022-07-29T12:23:28;99669.00;;;27.72;34.51
15817;BME280;8009;50.070;8.232;2022-07-29T12:25:58;99660.03;;;27.70;35.17
15817;BME280;8009;50.070;8.232;2022-07-29T12:28:26;99672.09;;;27.82;35.84
15817;BME280;8009;50.070;8.232;2022-07-29T12:30:57;99662.75;;;27.77;39.26
15817;BME280;8009;50.070;8.232;2022-07-29T12:33:28;99674.03;;;27.15;43.24
15817;BME280;8009;50.070;8.232;2022-07-29T12:35:58;99665.25;;;27.00;43.69
15817;BME280;8009;50.070;8.232;2022-07-29T12:38:27;99669.03;;;26.87;39.31
15817;BME280;8009;50.070;8.232;2022-07-29T12:40:57;99668.22;;;27.35;39.38
15817;BME280;8009;50.070;8.232;2022-07-29T12:43:28;99666.94;;;27.19;35.56
15817;BME280;8009;50.070;8.232;2022-07-29T12:46:12;99663.47;;;27.24;35.82
15817;BME280;8009;50.070;8.232;2022-07-29T12:48:42;99670.72;;;27.25;38.88
15817;BME280;8009;50.070;8.232;2022-07-29T12:51:11;99661.03;;;27.15;40.44
15817;BME280;8009;50.070;8.232;2022-07-29T12:54:01;99663.59;;;27.17;41.21
15817;BME280;8009;50.070;8.232;2022-07-29T12:56:33;99666.94;;;27.19;38.32
15817;BME280;8009;50.070;8.232;2022-07-29T12:59:11;99668.31;;;27.10;40.61
15817;BME280;8009;50.070;8.232;2022-07-29T13:01:46;99676.00;;;27.08;37.22
15817;BME280;8009;50.070;8.232;2022-07-29T13:04:24;99676.94;;;26.15;44.68
15817;BME280;8009;50.070;8.232;2022-07-29T13:06:59;99679.94;;;25.75;44.15
15817;BME280;8009;50.070;8.232;2022-07-29T13:09:36;99671.84;;;25.42;47.78
15817;BME280;8009;50.070;8.232;2022-07-29T13:12:06;99675.66;;;24.89;46.93
15817;BME280;8009;50.070;8.232;2022-07-29T13:14:36;99686.03;;;25.00;46.14
15817;BME280;8009;50.070;8.232;2022-07-29T13:17:09;99690.41;;;25.28;43.35
15817;BME280;8009;50.070;8.232;2022-07-29T13:19:40;99686.56;;;25.29;44.83
15817;BME280;8009;50.070;8.232;2022-07-29T13:22:10;99682.56;;;25.18;47.35
15817;BME280;8009;50.070;8.232;2022-07-29T13:24:49;99688.34;;;25.03;46.73
15817;BME280;8009;50.070;8.232;2022-07-29T13:27:19;99692.09;;;25.29;48.42
15817;BME280;8009;50.070;8.232;2022-07-29T13:29:52;99698.69;;;25.28;46.05
15817;BME280;8009;50.070;8.232;2022-07-29T13:32:25;99693.72;;;24.92;45.12
15817;BME280;8009;50.070;8.232;2022-07-29T13:34:53;99693.50;;;24.80;48.22
15817;BME280;8009;50.070;8.232;2022-07-29T13:37:24;99684.94;;;25.01;48.85
15817;BME280;8009;50.070;8.232;2022-07-29T13:39:54;99683.78;;;25.36;48.61